Truth — WYV5559 — position and weather

sailwx.info

Track history (hours):
 
Tides and Currents Weather Stations Pressure Air Temp Water Temp Dewpoint Dewpoint Depression Visibility Wind Speed Wind Dir Waves Ship Positions

Truth

Owner: TRUTH AQUATIES INC, SANTA BARBARA, CA. More information available from US FCC via Universal Licensing System and Coast Guard Vessel Documentation Center.

Last reported at 2018-Apr-21 18:27 UTC. Time now 2018-Apr-21 19:21 UTC.
Position N 34°24' W 119°42'.

Length 22 m.

Type: Diving. MMSI: 367384840.

Date/timePositionNaut miles runAvg speedWind from/ knotsBaromVisibWave heightAir tempDewpointWater temp
2018-Apr-21 18:27N 34°24' W 119°42'0 0.0
2018-Apr-21 17:39N 34°24' W 119°42'0 0.0
2018-Apr-21 17:30N 34°24' W 119°42'0 0.0
2018-Apr-21 16:57N 34°24' W 119°42'0 0.0
2018-Apr-21 15:15N 34°24' W 119°42'0 0.0
2018-Apr-21 14:51N 34°24' W 119°42'0 0.0
2018-Apr-21 12:57N 34°24' W 119°42'0 0.0
2018-Apr-21 02:36N 34°24' W 119°42'0 0.0
2018-Apr-21 02:09N 34°24' W 119°42'0 0.0
2018-Apr-21 00:42N 34°24' W 119°42'0 0.0
2018-Apr-20 19:42N 34°24' W 119°42'0 0.0
2018-Apr-20 19:30N 34°24' W 119°42'0 0.0
2018-Apr-20 18:54N 34°24' W 119°42'0 0.0
2018-Apr-20 17:36N 34°24' W 119°42'0 0.0
2018-Apr-20 17:15N 34°24' W 119°42'0 0.0
2018-Apr-20 14:21N 34°24' W 119°42'0 0.0
2018-Apr-20 11:12N 34°24' W 119°42'0 0.0
2018-Apr-20 10:51N 34°24' W 119°42'0 0.0
2018-Apr-20 08:18N 34°24' W 119°42'0 0.0
2018-Apr-20 04:33N 34°24' W 119°42'0 0.0
2018-Apr-19 23:24N 34°24' W 119°42'0 0.0
2018-Apr-19 13:54N 34°24' W 119°42'0 0.0
2018-Apr-19 10:42N 34°24' W 119°42'0 0.0
2018-Apr-19 00:51N 34°24' W 119°42'0 0.0
2018-Apr-18 22:12N 34°24' W 119°42'0 0.0
2018-Apr-18 21:48N 34°24' W 119°42'0 0.0
2018-Apr-18 19:12N 34°24' W 119°42'0 0.0
2018-Apr-18 18:54N 34°24' W 119°42'0 0.0
2018-Apr-18 18:18N 34°24' W 119°42'0 0.0
2018-Apr-18 16:48N 34°24' W 119°42'0 0.0
2018-Apr-18 14:09N 34°24' W 119°42'0 0.0
2018-Apr-18 13:51N 34°24' W 119°42'0 0.0
2018-Apr-18 13:24N 34°24' W 119°42'0 0.0
2018-Apr-18 10:45N 34°24' W 119°42'0 0.0
2018-Apr-18 08:12N 34°24' W 119°42'0 0.0
2018-Apr-18 07:54N 34°24' W 119°42'0 0.0
2018-Apr-17 22:51N 34°24' W 119°42'0 0.0
2018-Apr-17 22:30N 34°24' W 119°42'0 0.0
2018-Apr-17 21:57N 34°24' W 119°42'0 0.0
2018-Apr-17 18:15N 34°24' W 119°42'0 0.0
2018-Apr-17 08:06N 34°24' W 119°42'0 0.0
2018-Apr-17 07:45N 34°24' W 119°42'0 0.0
2018-Apr-17 07:24N 34°24' W 119°42'0 0.0
2018-Apr-17 01:01N 34°24' W 119°42'0 0.0
2018-Apr-17 00:49N 34°24' W 119°42'0 0.0
2018-Apr-16 20:58N 34°24' W 119°42'0 0.0
2018-Apr-16 19:25N 34°24' W 119°42'0 0.0
2018-Apr-16 12:43N 34°24' W 119°42'0 0.0
2018-Apr-16 12:25N 34°24' W 119°42'0 0.0
2018-Apr-16 10:01N 34°24' W 119°42'0 0.0
2018-Apr-16 09:55N 34°24' W 119°42'0 0.0
2018-Apr-16 05:04N 34°24' W 119°41'0 0.0
2018-Apr-16 04:55N 34°24' W 119°41'0 0.1
2018-Apr-16 04:10N 34°24' W 119°42'0 0.1
2018-Apr-16 03:46N 34°24' W 119°41'0 0.0
2018-Apr-16 01:43N 34°24' W 119°42'0 0.0
2018-Apr-16 01:13N 34°24' W 119°42'0 0.0
2018-Apr-16 00:49N 34°24' W 119°42'0 0.0
2018-Apr-16 00:25N 34°24' W 119°42'0 0.0
2018-Apr-15 23:58N 34°24' W 119°42'1 2.8
2018-Apr-15 23:26N 34°23' W 119°41'5 9.9
2018-Apr-15 22:57N 34°18' W 119°42'6 9.9
2018-Apr-15 22:24N 34°13' W 119°43'4 9.8
2018-Apr-15 21:56N 34°08' W 119°42'4 8.9
2018-Apr-15 21:30N 34°05' W 119°42'2 3.1
2018-Apr-15 20:49N 34°02' W 119°42'0 0.0
2018-Apr-15 20:29N 34°02' W 119°42'0 0.0
2018-Apr-15 19:41N 34°02' W 119°42'0 0.1
2018-Apr-15 19:29N 34°02' W 119°42'3 5.4
2018-Apr-15 18:58N 34°04' W 119°45'0 0.3
2018-Apr-15 18:07N 34°04' W 119°46'0 0.1
2018-Apr-15 18:00N 34°04' W 119°46'0 0.0
2018-Apr-15 17:23N 34°04' W 119°46'3 8.1
2018-Apr-15 17:00N 34°04' W 119°49'1 1.8
2018-Apr-15 16:16N 34°04' W 119°51'0 0.0
2018-Apr-15 15:55N 34°04' W 119°51'0 0.1
2018-Apr-15 15:25N 34°04' W 119°51'0 0.1
2018-Apr-15 14:58N 34°04' W 119°51'2 5.3
2018-Apr-15 14:30N 34°04' W 119°48'2 3.8
2018-Apr-15 13:57N 34°04' W 119°46'0 0.9
2018-Apr-15 13:25N 34°03' W 119°45'0 0.0
2018-Apr-15 12:58N 34°03' W 119°45'3 6.4
2018-Apr-15 12:28N 34°03' W 119°41'5 9.4
2018-Apr-15 11:58N 34°04' W 119°36'4 8.4
2018-Apr-15 11:27N 34°02' W 119°31'4 8.8
2018-Apr-15 10:59N 33°59' W 119°27'5 9.9
2018-Apr-15 10:30N 33°55' W 119°24'610.4
2018-Apr-15 09:55N 33°50' W 119°20'4 9.8
2018-Apr-15 09:30N 33°47' W 119°17'5 9.2
2018-Apr-15 08:58N 33°43' W 119°13'4 8.8
2018-Apr-15 08:30N 33°40' W 119°10'6 8.9
2018-Apr-15 07:51N 33°35' W 119°06'3 9.6
2018-Apr-15 07:30N 33°32' W 119°04'4 0.4
2018-Apr-14 20:39N 33°28' W 119°03'1 6.8
2018-Apr-14 20:29N 33°29' W 119°04'21 2.9
2018-Apr-14 13:16N 33°47' W 119°16'3 9.6
2018-Apr-14 12:59N 33°49' W 119°18'5 9.4
2018-Apr-14 12:29N 33°53' W 119°21'8 9.7
2018-Apr-14 11:40N 33°60' W 119°26'2 9.9
2018-Apr-14 11:26N 34°02' W 119°27'6 9.8
2018-Apr-14 10:49N 34°07' W 119°30'3 9.8
2018-Apr-14 10:28N 34°10' W 119°31'5 9.7
2018-Apr-14 09:56N 34°15' W 119°34'4 9.5
2018-Apr-14 09:30N 34°19' W 119°36'6 9.8
2018-Apr-14 08:51N 34°24' W 119°41'1 0.1
2018-Apr-14 01:44N 34°24' W 119°42'0 0.0
2018-Apr-14 01:26N 34°24' W 119°42'0 0.0
2018-Apr-14 00:59N 34°24' W 119°42'0 0.0
2018-Apr-13 23:20N 34°24' W 119°42'0 0.0
2018-Apr-13 22:53N 34°24' W 119°42'0 0.0
2018-Apr-13 22:26N 34°24' W 119°42'0 0.0
2018-Apr-13 19:07N 34°24' W 119°41'0 0.2
2018-Apr-13 18:14N 34°24' W 119°42'0 0.1
2018-Apr-13 14:34N 34°24' W 119°42'0 0.0
2018-Apr-13 14:13N 34°24' W 119°42'0 0.0
2018-Apr-13 13:55N 34°24' W 119°42'0 0.0
2018-Apr-13 11:37N 34°24' W 119°42'0 0.0
2018-Apr-13 11:07N 34°24' W 119°42'0 0.0
2018-Apr-13 10:43N 34°24' W 119°42'0 0.0
2018-Apr-13 10:19N 34°24' W 119°42'0 0.0
2018-Apr-13 09:49N 34°24' W 119°42'0 0.0
2018-Apr-13 07:52N 34°24' W 119°42'0 0.0
2018-Apr-13 07:28N 34°24' W 119°42'0 0.1
2018-Apr-13 06:31N 34°24' W 119°41'0 0.1
2018-Apr-13 05:49N 34°24' W 119°42'0 0.1
2018-Apr-13 04:58N 34°24' W 119°41'0 0.0
2018-Apr-13 02:01N 34°24' W 119°42'0 0.0
2018-Apr-13 00:07N 34°24' W 119°42'0 0.0
2018-Apr-12 23:43N 34°24' W 119°42'0 0.0
2018-Apr-12 15:40N 34°24' W 119°42'0 0.0
2018-Apr-12 14:07N 34°24' W 119°42'0 0.0
2018-Apr-12 11:16N 34°24' W 119°42'0 0.0
2018-Apr-12 09:19N 34°24' W 119°42'0 0.0
2018-Apr-12 00:28N 34°24' W 119°42'0 0.0
2018-Apr-11 22:25N 34°24' W 119°42'0 0.0
2018-Apr-11 19:55N 34°24' W 119°42'0 0.0
2018-Apr-11 19:13N 34°24' W 119°42'0 0.0
2018-Apr-11 18:55N 34°24' W 119°42'  
Track history (hours):
 
Tides and Currents Weather Stations Pressure Air Temp Water Temp Dewpoint Dewpoint Depression Visibility Wind Speed Wind Dir Waves Ship Positions

Truth

Owner: TRUTH AQUATIES INC, SANTA BARBARA, CA. More information available from US FCC via Universal Licensing System and Coast Guard Vessel Documentation Center.

Last reported at 2018-Apr-21 18:27 UTC. Time now 2018-Apr-21 19:21 UTC.
Position N 34°24' W 119°42'.

Length 22 m.

Type: Diving. MMSI: 367384840.

Date/timePositionNaut miles runAvg speedWind from/ knotsBaromVisibWave heightAir tempDewpointWater temp
2018-Apr-21 18:27N 34°24' W 119°42'0 0.0
2018-Apr-21 17:39N 34°24' W 119°42'0 0.0
2018-Apr-21 17:30N 34°24' W 119°42'0 0.0
2018-Apr-21 16:57N 34°24' W 119°42'0 0.0
2018-Apr-21 15:15N 34°24' W 119°42'0 0.0
2018-Apr-21 14:51N 34°24' W 119°42'0 0.0
2018-Apr-21 12:57N 34°24' W 119°42'0 0.0
2018-Apr-21 02:36N 34°24' W 119°42'0 0.0
2018-Apr-21 02:09N 34°24' W 119°42'0 0.0
2018-Apr-21 00:42N 34°24' W 119°42'0 0.0
2018-Apr-20 19:42N 34°24' W 119°42'0 0.0
2018-Apr-20 19:30N 34°24' W 119°42'0 0.0
2018-Apr-20 18:54N 34°24' W 119°42'0 0.0
2018-Apr-20 17:36N 34°24' W 119°42'0 0.0
2018-Apr-20 17:15N 34°24' W 119°42'0 0.0
2018-Apr-20 14:21N 34°24' W 119°42'0 0.0
2018-Apr-20 11:12N 34°24' W 119°42'0 0.0
2018-Apr-20 10:51N 34°24' W 119°42'0 0.0
2018-Apr-20 08:18N 34°24' W 119°42'0 0.0
2018-Apr-20 04:33N 34°24' W 119°42'0 0.0
2018-Apr-19 23:24N 34°24' W 119°42'0 0.0
2018-Apr-19 13:54N 34°24' W 119°42'0 0.0
2018-Apr-19 10:42N 34°24' W 119°42'0 0.0
2018-Apr-19 00:51N 34°24' W 119°42'0 0.0
2018-Apr-18 22:12N 34°24' W 119°42'0 0.0
2018-Apr-18 21:48N 34°24' W 119°42'0 0.0
2018-Apr-18 19:12N 34°24' W 119°42'0 0.0
2018-Apr-18 18:54N 34°24' W 119°42'0 0.0
2018-Apr-18 18:18N 34°24' W 119°42'0 0.0
2018-Apr-18 16:48N 34°24' W 119°42'0 0.0
2018-Apr-18 14:09N 34°24' W 119°42'0 0.0
2018-Apr-18 13:51N 34°24' W 119°42'0 0.0
2018-Apr-18 13:24N 34°24' W 119°42'0 0.0
2018-Apr-18 10:45N 34°24' W 119°42'0 0.0
2018-Apr-18 08:12N 34°24' W 119°42'0 0.0
2018-Apr-18 07:54N 34°24' W 119°42'0 0.0
2018-Apr-17 22:51N 34°24' W 119°42'0 0.0
2018-Apr-17 22:30N 34°24' W 119°42'0 0.0
2018-Apr-17 21:57N 34°24' W 119°42'0 0.0
2018-Apr-17 18:15N 34°24' W 119°42'0 0.0
2018-Apr-17 08:06N 34°24' W 119°42'0 0.0
2018-Apr-17 07:45N 34°24' W 119°42'0 0.0
2018-Apr-17 07:24N 34°24' W 119°42'0 0.0
2018-Apr-17 01:01N 34°24' W 119°42'0 0.0
2018-Apr-17 00:49N 34°24' W 119°42'0 0.0
2018-Apr-16 20:58N 34°24' W 119°42'0 0.0
2018-Apr-16 19:25N 34°24' W 119°42'0 0.0
2018-Apr-16 12:43N 34°24' W 119°42'0 0.0
2018-Apr-16 12:25N 34°24' W 119°42'0 0.0
2018-Apr-16 10:01N 34°24' W 119°42'0 0.0
2018-Apr-16 09:55N 34°24' W 119°42'0 0.0
2018-Apr-16 05:04N 34°24' W 119°41'0 0.0
2018-Apr-16 04:55N 34°24' W 119°41'0 0.1
2018-Apr-16 04:10N 34°24' W 119°42'0 0.1
2018-Apr-16 03:46N 34°24' W 119°41'0 0.0
2018-Apr-16 01:43N 34°24' W 119°42'0 0.0
2018-Apr-16 01:13N 34°24' W 119°42'0 0.0
2018-Apr-16 00:49N 34°24' W 119°42'0 0.0
2018-Apr-16 00:25N 34°24' W 119°42'0 0.0
2018-Apr-15 23:58N 34°24' W 119°42'1 2.8
2018-Apr-15 23:26N 34°23' W 119°41'5 9.9
2018-Apr-15 22:57N 34°18' W 119°42'6 9.9
2018-Apr-15 22:24N 34°13' W 119°43'4 9.8
2018-Apr-15 21:56N 34°08' W 119°42'4 8.9
2018-Apr-15 21:30N 34°05' W 119°42'2 3.1
2018-Apr-15 20:49N 34°02' W 119°42'0 0.0
2018-Apr-15 20:29N 34°02' W 119°42'0 0.0
2018-Apr-15 19:41N 34°02' W 119°42'0 0.1
2018-Apr-15 19:29N 34°02' W 119°42'3 5.4
2018-Apr-15 18:58N 34°04' W 119°45'0 0.3
2018-Apr-15 18:07N 34°04' W 119°46'0 0.1
2018-Apr-15 18:00N 34°04' W 119°46'0 0.0
2018-Apr-15 17:23N 34°04' W 119°46'3 8.1
2018-Apr-15 17:00N 34°04' W 119°49'1 1.8
2018-Apr-15 16:16N 34°04' W 119°51'0 0.0
2018-Apr-15 15:55N 34°04' W 119°51'0 0.1
2018-Apr-15 15:25N 34°04' W 119°51'0 0.1
2018-Apr-15 14:58N 34°04' W 119°51'2 5.3
2018-Apr-15 14:30N 34°04' W 119°48'2 3.8
2018-Apr-15 13:57N 34°04' W 119°46'0 0.9
2018-Apr-15 13:25N 34°03' W 119°45'0 0.0
2018-Apr-15 12:58N 34°03' W 119°45'3 6.4
2018-Apr-15 12:28N 34°03' W 119°41'5 9.4
2018-Apr-15 11:58N 34°04' W 119°36'4 8.4
2018-Apr-15 11:27N 34°02' W 119°31'4 8.8
2018-Apr-15 10:59N 33°59' W 119°27'5 9.9
2018-Apr-15 10:30N 33°55' W 119°24'610.4
2018-Apr-15 09:55N 33°50' W 119°20'4 9.8
2018-Apr-15 09:30N 33°47' W 119°17'5 9.2
2018-Apr-15 08:58N 33°43' W 119°13'4 8.8
2018-Apr-15 08:30N 33°40' W 119°10'6 8.9
2018-Apr-15 07:51N 33°35' W 119°06'3 9.6
2018-Apr-15 07:30N 33°32' W 119°04'4 0.4
2018-Apr-14 20:39N 33°28' W 119°03'1 6.8
2018-Apr-14 20:29N 33°29' W 119°04'21 2.9
2018-Apr-14 13:16N 33°47' W 119°16'3 9.6
2018-Apr-14 12:59N 33°49' W 119°18'5 9.4
2018-Apr-14 12:29N 33°53' W 119°21'8 9.7
2018-Apr-14 11:40N 33°60' W 119°26'2 9.9
2018-Apr-14 11:26N 34°02' W 119°27'6 9.8
2018-Apr-14 10:49N 34°07' W 119°30'3 9.8
2018-Apr-14 10:28N 34°10' W 119°31'5 9.7
2018-Apr-14 09:56N 34°15' W 119°34'4 9.5
2018-Apr-14 09:30N 34°19' W 119°36'6 9.8
2018-Apr-14 08:51N 34°24' W 119°41'1 0.1
2018-Apr-14 01:44N 34°24' W 119°42'0 0.0
2018-Apr-14 01:26N 34°24' W 119°42'0 0.0
2018-Apr-14 00:59N 34°24' W 119°42'0 0.0
2018-Apr-13 23:20N 34°24' W 119°42'0 0.0
2018-Apr-13 22:53N 34°24' W 119°42'0 0.0
2018-Apr-13 22:26N 34°24' W 119°42'0 0.0
2018-Apr-13 19:07N 34°24' W 119°41'0 0.2
2018-Apr-13 18:14N 34°24' W 119°42'0 0.1
2018-Apr-13 14:34N 34°24' W 119°42'0 0.0
2018-Apr-13 14:13N 34°24' W 119°42'0 0.0
2018-Apr-13 13:55N 34°24' W 119°42'0 0.0
2018-Apr-13 11:37N 34°24' W 119°42'0 0.0
2018-Apr-13 11:07N 34°24' W 119°42'0 0.0
2018-Apr-13 10:43N 34°24' W 119°42'0 0.0
2018-Apr-13 10:19N 34°24' W 119°42'0 0.0
2018-Apr-13 09:49N 34°24' W 119°42'0 0.0
2018-Apr-13 07:52N 34°24' W 119°42'0 0.0
2018-Apr-13 07:28N 34°24' W 119°42'0 0.1
2018-Apr-13 06:31N 34°24' W 119°41'0 0.1
2018-Apr-13 05:49N 34°24' W 119°42'0 0.1
2018-Apr-13 04:58N 34°24' W 119°41'0 0.0
2018-Apr-13 02:01N 34°24' W 119°42'0 0.0
2018-Apr-13 00:07N 34°24' W 119°42'0 0.0
2018-Apr-12 23:43N 34°24' W 119°42'0 0.0
2018-Apr-12 15:40N 34°24' W 119°42'0 0.0
2018-Apr-12 14:07N 34°24' W 119°42'0 0.0
2018-Apr-12 11:16N 34°24' W 119°42'0 0.0
2018-Apr-12 09:19N 34°24' W 119°42'0 0.0
2018-Apr-12 00:28N 34°24' W 119°42'0 0.0
2018-Apr-11 22:25N 34°24' W 119°42'0 0.0
2018-Apr-11 19:55N 34°24' W 119°42'0 0.0
2018-Apr-11 19:13N 34°24' W 119°42'0 0.0
2018-Apr-11 18:55N 34°24' W 119°42'  

Dump ship's entire track history